sensor_id;sensor_type;location;lat;lon;timestamp;pressure;altitude;pressure_sealevel;temperature
68588;BMP180;55560;52.174;20.996;2023-03-04T00:01:31;100199.00;;;1.90
68588;BMP180;55560;52.174;20.996;2023-03-04T00:03:59;100203.80;;;1.90
68588;BMP180;55560;52.174;20.996;2023-03-04T00:06:26;100197.40;;;1.90
68588;BMP180;55560;52.174;20.996;2023-03-04T00:08:54;100191.00;;;1.90
68588;BMP180;55560;52.174;20.996;2023-03-04T00:11:22;100189.40;;;1.90
68588;BMP180;55560;52.174;20.996;2023-03-04T00:13:50;100189.20;;;1.90
68588;BMP180;55560;52.174;20.996;2023-03-04T00:16:18;100192.00;;;2.00
68588;BMP180;55560;52.174;20.996;2023-03-04T00:18:46;100192.20;;;2.00
68588;BMP180;55560;52.174;20.996;2023-03-04T00:21:14;100187.80;;;2.00
68588;BMP180;55560;52.174;20.996;2023-03-04T00:23:42;100188.80;;;2.00
68588;BMP180;55560;52.174;20.996;2023-03-04T00:26:10;100187.20;;;2.00
68588;BMP180;55560;52.174;20.996;2023-03-04T00:28:41;100186.40;;;2.00
68588;BMP180;55560;52.174;20.996;2023-03-04T00:31:10;100185.40;;;2.00
68588;BMP180;55560;52.174;20.996;2023-03-04T00:33:38;100175.20;;;2.00
68588;BMP180;55560;52.174;20.996;2023-03-04T00:36:07;100174.40;;;2.00
68588;BMP180;55560;52.174;20.996;2023-03-04T00:38:35;100171.00;;;2.00
68588;BMP180;55560;52.174;20.996;2023-03-04T00:41:02;100169.60;;;2.00
68588;BMP180;55560;52.174;20.996;2023-03-04T00:43:30;100165.80;;;2.00
68588;BMP180;55560;52.174;20.996;2023-03-04T00:45:58;100158.60;;;2.00
68588;BMP180;55560;52.174;20.996;2023-03-04T00:48:26;100147.80;;;2.00
68588;BMP180;55560;52.174;20.996;2023-03-04T00:50:54;100149.20;;;2.00
68588;BMP180;55560;52.174;20.996;2023-03-04T00:53:22;100146.40;;;2.00
68588;BMP180;55560;52.174;20.996;2023-03-04T00:55:51;100139.00;;;2.00
68588;BMP180;55560;52.174;20.996;2023-03-04T00:58:18;100142.60;;;2.00
68588;BMP180;55560;52.174;20.996;2023-03-04T01:00:46;100134.00;;;2.00
68588;BMP180;55560;52.174;20.996;2023-03-04T01:03:14;100136.80;;;2.00
68588;BMP180;55560;52.174;20.996;2023-03-04T01:05:42;100129.60;;;2.00
68588;BMP180;55560;52.174;20.996;2023-03-04T01:08:10;100129.80;;;2.00
68588;BMP180;55560;52.174;20.996;2023-03-04T01:10:37;100122.40;;;2.00
68588;BMP180;55560;52.174;20.996;2023-03-04T01:13:05;100115.00;;;2.00
68588;BMP180;55560;52.174;20.996;2023-03-04T01:15:33;100116.60;;;2.00
68588;BMP180;55560;52.174;20.996;2023-03-04T01:18:01;100104.40;;;2.00
68588;BMP180;55560;52.174;20.996;2023-03-04T01:20:29;100090.20;;;2.00
68588;BMP180;55560;52.174;20.996;2023-03-04T01:22:57;100094.00;;;1.90
68588;BMP180;55560;52.174;20.996;2023-03-04T01:25:25;100091.80;;;1.90
68588;BMP180;55560;52.174;20.996;2023-03-04T01:27:52;100087.40;;;1.90
68588;BMP180;55560;52.174;20.996;2023-03-04T01:30:20;100084.00;;;1.90
68588;BMP180;55560;52.174;20.996;2023-03-04T01:32:49;100070.80;;;1.90
68588;BMP180;55560;52.174;20.996;2023-03-04T01:35:18;100067.60;;;1.96
68588;BMP180;55560;52.174;20.996;2023-03-04T01:37:45;100060.40;;;1.90
68588;BMP180;55560;52.174;20.996;2023-03-04T01:40:14;100048.80;;;1.90
68588;BMP180;55560;52.174;20.996;2023-03-04T01:42:42;100040.00;;;1.90
68588;BMP180;55560;52.174;20.996;2023-03-04T01:45:17;100013.40;;;1.86
68588;BMP180;55560;52.174;20.996;2023-03-04T01:47:47;100005.40;;;1.80
68588;BMP180;55560;52.174;20.996;2023-03-04T01:50:27;100011.00;;;1.80
68588;BMP180;55560;52.174;20.996;2023-03-04T01:52:56;100008.60;;;1.80
68588;BMP180;55560;52.174;20.996;2023-03-04T01:55:29;99994.60;;;1.80
68588;BMP180;55560;52.174;20.996;2023-03-04T01:57:57;99992.40;;;1.70
68588;BMP180;55560;52.174;20.996;2023-03-04T02:00:32;99990.80;;;1.70
68588;BMP180;55560;52.174;20.996;2023-03-04T02:03:08;99992.80;;;1.70
68588;BMP180;55560;52.174;20.996;2023-03-04T02:05:42;99997.40;;;1.70
68588;BMP180;55560;52.174;20.996;2023-03-04T02:08:11;99978.60;;;1.70
68588;BMP180;55560;52.174;20.996;2023-03-04T02:10:42;99970.40;;;1.70
68588;BMP180;55560;52.174;20.996;2023-03-04T02:13:12;99962.20;;;1.70
68588;BMP180;55560;52.174;20.996;2023-03-04T02:15:42;99955.20;;;1.70
68588;BMP180;55560;52.174;20.996;2023-03-04T02:18:21;99940.20;;;1.70
68588;BMP180;55560;52.174;20.996;2023-03-04T02:21:16;99940.00;;;1.70
68588;BMP180;55560;52.174;20.996;2023-03-04T02:23:58;99945.20;;;1.70
68588;BMP180;55560;52.174;20.996;2023-03-04T02:26:30;99947.20;;;1.70
68588;BMP180;55560;52.174;20.996;2023-03-04T02:29:00;99935.40;;;1.70
68588;BMP180;55560;52.174;20.996;2023-03-04T02:31:48;99935.40;;;1.70
68588;BMP180;55560;52.174;20.996;2023-03-04T02:34:19;99941.40;;;1.74
68588;BMP180;55560;52.174;20.996;2023-03-04T02:36:50;99949.00;;;1.80
68588;BMP180;55560;52.174;20.996;2023-03-04T02:41:49;99950.80;;;1.80
68588;BMP180;55560;52.174;20.996;2023-03-04T02:44:23;99942.60;;;1.80
68588;BMP180;55560;52.174;20.996;2023-03-04T02:46:51;99945.00;;;1.80
68588;BMP180;55560;52.174;20.996;2023-03-04T02:49:22;99942.60;;;1.80
68588;BMP180;55560;52.174;20.996;2023-03-04T02:52:19;99942.80;;;1.80
68588;BMP180;55560;52.174;20.996;2023-03-04T02:54:48;99946.60;;;1.86
68588;BMP180;55560;52.174;20.996;2023-03-04T02:57:16;99950.80;;;1.90
68588;BMP180;55560;52.174;20.996;2023-03-04T02:59:47;99942.80;;;1.90
68588;BMP180;55560;52.174;20.996;2023-03-04T03:02:18;99943.20;;;1.90
68588;BMP180;55560;52.174;20.996;2023-03-04T03:04:46;99937.80;;;1.90
68588;BMP180;55560;52.174;20.996;2023-03-04T03:07:16;99938.40;;;1.90
68588;BMP180;55560;52.174;20.996;2023-03-04T03:09:44;99936.60;;;1.90
68588;BMP180;55560;52.174;20.996;2023-03-04T03:12:11;99931.20;;;1.90
68588;BMP180;55560;52.174;20.996;2023-03-04T03:14:39;99931.20;;;1.98
68588;BMP180;55560;52.174;20.996;2023-03-04T03:17:08;99931.80;;;2.00
68588;BMP180;55560;52.174;20.996;2023-03-04T03:19:37;99930.00;;;2.06
68588;BMP180;55560;52.174;20.996;2023-03-04T03:22:05;99927.80;;;2.00
68588;BMP180;55560;52.174;20.996;2023-03-04T03:24:33;99926.20;;;2.00
68588;BMP180;55560;52.174;20.996;2023-03-04T03:27:02;99927.00;;;2.00
68588;BMP180;55560;52.174;20.996;2023-03-04T03:29:30;99924.80;;;2.00
68588;BMP180;55560;52.174;20.996;2023-03-04T03:31:58;99914.00;;;2.00
68588;BMP180;55560;52.174;20.996;2023-03-04T03:34:26;99911.80;;;2.10
68588;BMP180;55560;52.174;20.996;2023-03-04T03:36:54;99909.60;;;2.10
68588;BMP180;55560;52.174;20.996;2023-03-04T03:39:22;99907.00;;;2.10
68588;BMP180;55560;52.174;20.996;2023-03-04T03:41:50;99907.60;;;2.10
68588;BMP180;55560;52.174;20.996;2023-03-04T03:44:18;99906.00;;;2.10
68588;BMP180;55560;52.174;20.996;2023-03-04T03:46:46;99905.40;;;2.10
68588;BMP180;55560;52.174;20.996;2023-03-04T03:49:14;99901.80;;;2.16
68588;BMP180;55560;52.174;20.996;2023-03-04T03:51:43;99896.40;;;2.20
68588;BMP180;55560;52.174;20.996;2023-03-04T03:54:11;99898.20;;;2.20
68588;BMP180;55560;52.174;20.996;2023-03-04T03:56:40;99899.20;;;2.30
68588;BMP180;55560;52.174;20.996;2023-03-04T03:59:08;99892.20;;;2.30
68588;BMP180;55560;52.174;20.996;2023-03-04T04:01:36;99896.60;;;2.40
68588;BMP180;55560;52.174;20.996;2023-03-04T04:04:04;99898.60;;;2.40
68588;BMP180;55560;52.174;20.996;2023-03-04T04:06:32;99889.20;;;2.40
68588;BMP180;55560;52.174;20.996;2023-03-04T04:09:00;99895.60;;;2.40
68588;BMP180;55560;52.174;20.996;2023-03-04T04:11:28;99895.20;;;2.50
68588;BMP180;55560;52.174;20.996;2023-03-04T04:13:55;99894.40;;;2.50
68588;BMP180;55560;52.174;20.996;2023-03-04T04:16:23;99891.20;;;2.50
68588;BMP180;55560;52.174;20.996;2023-03-04T04:18:51;99891.40;;;2.60
68588;BMP180;55560;52.174;20.996;2023-03-04T04:21:19;99890.20;;;2.60
68588;BMP180;55560;52.174;20.996;2023-03-04T04:23:47;99895.00;;;2.52
68588;BMP180;55560;52.174;20.996;2023-03-04T04:26:15;99888.40;;;2.60
68588;BMP180;55560;52.174;20.996;2023-03-04T04:28:44;99893.80;;;2.60
68588;BMP180;55560;52.174;20.996;2023-03-04T04:31:11;99890.80;;;2.62
68588;BMP180;55560;52.174;20.996;2023-03-04T04:33:40;99886.60;;;2.60
68588;BMP180;55560;52.174;20.996;2023-03-04T04:36:12;99881.60;;;2.70
68588;BMP180;55560;52.174;20.996;2023-03-04T04:38:41;99881.80;;;2.70
68588;BMP180;55560;52.174;20.996;2023-03-04T04:41:30;99878.80;;;2.74
68588;BMP180;55560;52.174;20.996;2023-03-04T04:44:01;99875.20;;;2.80
68588;BMP180;55560;52.174;20.996;2023-03-04T04:46:29;99876.60;;;2.80
68588;BMP180;55560;52.174;20.996;2023-03-04T04:48:57;99877.60;;;2.78
68588;BMP180;55560;52.174;20.996;2023-03-04T04:51:25;99873.20;;;2.70
68588;BMP180;55560;52.174;20.996;2023-03-04T04:53:53;99872.80;;;2.70
68588;BMP180;55560;52.174;20.996;2023-03-04T04:56:23;99867.80;;;2.80
68588;BMP180;55560;52.174;20.996;2023-03-04T04:58:57;99867.60;;;2.80
68588;BMP180;55560;52.174;20.996;2023-03-04T05:01:26;99875.00;;;2.84
68588;BMP180;55560;52.174;20.996;2023-03-04T05:03:54;99865.40;;;2.80
68588;BMP180;55560;52.174;20.996;2023-03-04T05:06:23;99863.00;;;2.90
68588;BMP180;55560;52.174;20.996;2023-03-04T05:08:52;99869.20;;;2.90
68588;BMP180;55560;52.174;20.996;2023-03-04T05:11:20;99864.80;;;2.86
68588;BMP180;55560;52.174;20.996;2023-03-04T05:13:48;99865.00;;;2.90
68588;BMP180;55560;52.174;20.996;2023-03-04T05:16:17;99860.40;;;2.90
68588;BMP180;55560;52.174;20.996;2023-03-04T05:18:46;99859.40;;;3.00
68588;BMP180;55560;52.174;20.996;2023-03-04T05:21:14;99858.20;;;3.00
68588;BMP180;55560;52.174;20.996;2023-03-04T05:23:42;99848.40;;;3.00
68588;BMP180;55560;52.174;20.996;2023-03-04T05:26:15;99845.80;;;3.10
68588;BMP180;55560;52.174;20.996;2023-03-04T05:28:43;99846.40;;;3.10
68588;BMP180;55560;52.174;20.996;2023-03-04T05:31:11;99854.60;;;3.10
68588;BMP180;55560;52.174;20.996;2023-03-04T05:33:39;99845.40;;;3.00
68588;BMP180;55560;52.174;20.996;2023-03-04T05:36:08;99844.20;;;3.04
68588;BMP180;55560;52.174;20.996;2023-03-04T05:38:36;99845.20;;;3.00
68588;BMP180;55560;52.174;20.996;2023-03-04T05:41:06;99841.00;;;3.00
68588;BMP180;55560;52.174;20.996;2023-03-04T05:43:34;99848.00;;;3.00
68588;BMP180;55560;52.174;20.996;2023-03-04T05:46:03;99841.00;;;3.02
68588;BMP180;55560;52.174;20.996;2023-03-04T05:48:31;99852.60;;;3.10
68588;BMP180;55560;52.174;20.996;2023-03-04T05:51:00;99851.60;;;3.00
68588;BMP180;55560;52.174;20.996;2023-03-04T05:53:28;99845.00;;;3.10
68588;BMP180;55560;52.174;20.996;2023-03-04T05:55:57;99843.00;;;3.10
68588;BMP180;55560;52.174;20.996;2023-03-04T05:58:26;99845.80;;;3.10
68588;BMP180;55560;52.174;20.996;2023-03-04T06:00:54;99843.40;;;3.02
68588;BMP180;55560;52.174;20.996;2023-03-04T06:03:21;99843.20;;;3.06
68588;BMP180;55560;52.174;20.996;2023-03-04T06:05:50;99837.60;;;3.00
68588;BMP180;55560;52.174;20.996;2023-03-04T06:08:17;99835.80;;;3.02
68588;BMP180;55560;52.174;20.996;2023-03-04T06:10:45;99840.60;;;3.08
68588;BMP180;55560;52.174;20.996;2023-03-04T06:13:13;99832.80;;;3.00
68588;BMP180;55560;52.174;20.996;2023-03-04T06:15:41;99829.20;;;3.00
68588;BMP180;55560;52.174;20.996;2023-03-04T06:18:09;99825.80;;;3.00
68588;BMP180;55560;52.174;20.996;2023-03-04T06:20:37;99823.00;;;2.98
68588;BMP180;55560;52.174;20.996;2023-03-04T06:23:05;99817.40;;;2.98
68588;BMP180;55560;52.174;20.996;2023-03-04T06:25:33;99811.80;;;3.00
68588;BMP180;55560;52.174;20.996;2023-03-04T06:28:01;99815.80;;;3.00
68588;BMP180;55560;52.174;20.996;2023-03-04T06:30:28;99807.00;;;3.00
68588;BMP180;55560;52.174;20.996;2023-03-04T06:32:57;99808.00;;;3.00
68588;BMP180;55560;52.174;20.996;2023-03-04T06:35:25;99811.20;;;2.96
68588;BMP180;55560;52.174;20.996;2023-03-04T06:37:53;99813.20;;;3.00
68588;BMP180;55560;52.174;20.996;2023-03-04T06:40:20;99811.20;;;3.00
68588;BMP180;55560;52.174;20.996;2023-03-04T06:42:48;99816.60;;;2.94
68588;BMP180;55560;52.174;20.996;2023-03-04T06:45:16;99809.40;;;2.90
68588;BMP180;55560;52.174;20.996;2023-03-04T06:47:44;99807.00;;;2.90
68588;BMP180;55560;52.174;20.996;2023-03-04T06:50:12;99814.00;;;2.90
68588;BMP180;55560;52.174;20.996;2023-03-04T06:52:40;99816.80;;;2.90
68588;BMP180;55560;52.174;20.996;2023-03-04T06:55:09;99818.00;;;2.92
68588;BMP180;55560;52.174;20.996;2023-03-04T06:57:37;99814.80;;;3.00
68588;BMP180;55560;52.174;20.996;2023-03-04T07:00:06;99821.60;;;3.00
68588;BMP180;55560;52.174;20.996;2023-03-04T07:02:34;99823.00;;;3.00
68588;BMP180;55560;52.174;20.996;2023-03-04T07:05:02;99823.40;;;3.00
68588;BMP180;55560;52.174;20.996;2023-03-04T07:07:30;99819.80;;;3.00
68588;BMP180;55560;52.174;20.996;2023-03-04T07:09:58;99824.80;;;3.00
68588;BMP180;55560;52.174;20.996;2023-03-04T07:12:26;99820.80;;;3.00
68588;BMP180;55560;52.174;20.996;2023-03-04T07:14:54;99822.00;;;3.00
68588;BMP180;55560;52.174;20.996;2023-03-04T07:17:22;99822.00;;;3.00
68588;BMP180;55560;52.174;20.996;2023-03-04T07:19:49;99826.20;;;3.00
68588;BMP180;55560;52.174;20.996;2023-03-04T07:22:17;99822.80;;;3.00
68588;BMP180;55560;52.174;20.996;2023-03-04T07:24:45;99815.80;;;3.06
68588;BMP180;55560;52.174;20.996;2023-03-04T07:27:13;99813.80;;;3.08
68588;BMP180;55560;52.174;20.996;2023-03-04T07:29:41;99808.20;;;3.00
68588;BMP180;55560;52.174;20.996;2023-03-04T07:32:09;99812.60;;;3.00
68588;BMP180;55560;52.174;20.996;2023-03-04T07:34:37;99815.00;;;3.00
68588;BMP180;55560;52.174;20.996;2023-03-04T07:37:05;99800.40;;;3.00
68588;BMP180;55560;52.174;20.996;2023-03-04T07:39:33;99805.20;;;3.06
68588;BMP180;55560;52.174;20.996;2023-03-04T07:42:01;99796.60;;;3.08
68588;BMP180;55560;52.174;20.996;2023-03-04T07:44:29;99796.20;;;3.10
68588;BMP180;55560;52.174;20.996;2023-03-04T07:46:57;99792.20;;;3.10
68588;BMP180;55560;52.174;20.996;2023-03-04T07:49:24;99792.40;;;3.10
68588;BMP180;55560;52.174;20.996;2023-03-04T07:51:52;99788.60;;;3.16
68588;BMP180;55560;52.174;20.996;2023-03-04T07:54:20;99786.60;;;3.12
68588;BMP180;55560;52.174;20.996;2023-03-04T07:56:48;99783.80;;;3.12
68588;BMP180;55560;52.174;20.996;2023-03-04T07:59:16;99784.40;;;3.10
68588;BMP180;55560;52.174;20.996;2023-03-04T08:01:43;99784.80;;;3.10
68588;BMP180;55560;52.174;20.996;2023-03-04T08:04:12;99779.00;;;3.10
68588;BMP180;55560;52.174;20.996;2023-03-04T08:06:41;99781.20;;;3.14
68588;BMP180;55560;52.174;20.996;2023-03-04T08:09:10;99775.40;;;3.10
68588;BMP180;55560;52.174;20.996;2023-03-04T08:11:40;99776.80;;;3.10
68588;BMP180;55560;52.174;20.996;2023-03-04T08:14:11;99776.00;;;3.20
68588;BMP180;55560;52.174;20.996;2023-03-04T08:16:40;99778.40;;;3.20
68588;BMP180;55560;52.174;20.996;2023-03-04T08:19:09;99779.20;;;3.20
68588;BMP180;55560;52.174;20.996;2023-03-04T08:21:37;99772.00;;;3.12
68588;BMP180;55560;52.174;20.996;2023-03-04T08:24:05;99771.00;;;3.16
68588;BMP180;55560;52.174;20.996;2023-03-04T08:26:43;99771.60;;;3.20
68588;BMP180;55560;52.174;20.996;2023-03-04T08:29:16;99768.40;;;3.20
68588;BMP180;55560;52.174;20.996;2023-03-04T08:31:45;99765.00;;;3.20
68588;BMP180;55560;52.174;20.996;2023-03-04T08:34:18;99770.00;;;3.20
68588;BMP180;55560;52.174;20.996;2023-03-04T08:36:46;99760.80;;;3.20
68588;BMP180;55560;52.174;20.996;2023-03-04T08:39:16;99770.20;;;3.20
68588;BMP180;55560;52.174;20.996;2023-03-04T08:41:45;99762.40;;;3.20
68588;BMP180;55560;52.174;20.996;2023-03-04T08:44:13;99762.00;;;3.20
68588;BMP180;55560;52.174;20.996;2023-03-04T08:46:42;99762.00;;;3.24
68588;BMP180;55560;52.174;20.996;2023-03-04T08:49:11;99756.00;;;3.28
68588;BMP180;55560;52.174;20.996;2023-03-04T08:51:39;99760.60;;;3.30
68588;BMP180;55560;52.174;20.996;2023-03-04T08:54:07;99763.80;;;3.20
68588;BMP180;55560;52.174;20.996;2023-03-04T08:56:35;99759.60;;;3.30
68588;BMP180;55560;52.174;20.996;2023-03-04T08:59:03;99758.00;;;3.30
68588;BMP180;55560;52.174;20.996;2023-03-04T09:01:31;99762.00;;;3.20
68588;BMP180;55560;52.174;20.996;2023-03-04T09:03:59;99762.40;;;3.24
68588;BMP180;55560;52.174;20.996;2023-03-04T09:06:27;99758.00;;;3.30
68588;BMP180;55560;52.174;20.996;2023-03-04T09:08:55;99750.60;;;3.28
68588;BMP180;55560;52.174;20.996;2023-03-04T09:11:22;99759.00;;;3.30
68588;BMP180;55560;52.174;20.996;2023-03-04T09:13:50;99756.40;;;3.30
68588;BMP180;55560;52.174;20.996;2023-03-04T09:16:19;99754.60;;;3.30
68588;BMP180;55560;52.174;20.996;2023-03-04T09:18:47;99741.00;;;3.20
68588;BMP180;55560;52.174;20.996;2023-03-04T09:21:15;99737.20;;;3.26
68588;BMP180;55560;52.174;20.996;2023-03-04T09:23:43;99735.20;;;3.30
68588;BMP180;55560;52.174;20.996;2023-03-04T09:26:20;99734.40;;;3.28
68588;BMP180;55560;52.174;20.996;2023-03-04T09:28:57;99723.00;;;3.28
68588;BMP180;55560;52.174;20.996;2023-03-04T09:31:27;99720.60;;;3.30
68588;BMP180;55560;52.174;20.996;2023-03-04T09:33:57;99725.40;;;3.30
68588;BMP180;55560;52.174;20.996;2023-03-04T09:36:25;99718.60;;;3.30
68588;BMP180;55560;52.174;20.996;2023-03-04T09:38:53;99716.80;;;3.30
68588;BMP180;55560;52.174;20.996;2023-03-04T09:41:26;99714.00;;;3.34
68588;BMP180;55560;52.174;20.996;2023-03-04T09:43:56;99717.00;;;3.40
68588;BMP180;55560;52.174;20.996;2023-03-04T09:46:37;99718.60;;;3.40
68588;BMP180;55560;52.174;20.996;2023-03-04T09:49:06;99708.60;;;3.40
68588;BMP180;55560;52.174;20.996;2023-03-04T10:00:12;99698.20;;;3.50
68588;BMP180;55560;52.174;20.996;2023-03-04T10:06:19;99696.20;;;3.50
68588;BMP180;55560;52.174;20.996;2023-03-04T10:12:01;99691.40;;;3.60
68588;BMP180;55560;52.174;20.996;2023-03-04T10:14:37;99693.80;;;3.60
68588;BMP180;55560;52.174;20.996;2023-03-04T10:20:24;99691.40;;;3.60
68588;BMP180;55560;52.174;20.996;2023-03-04T10:23:09;99691.00;;;3.60
68588;BMP180;55560;52.174;20.996;2023-03-04T10:25:44;99678.00;;;3.70
68588;BMP180;55560;52.174;20.996;2023-03-04T10:28:19;99680.80;;;3.70
68588;BMP180;55560;52.174;20.996;2023-03-04T10:31:11;99675.60;;;3.70
68588;BMP180;55560;52.174;20.996;2023-03-04T10:33:39;99673.60;;;3.70
68588;BMP180;55560;52.174;20.996;2023-03-04T10:39:28;99672.40;;;3.70
68588;BMP180;55560;52.174;20.996;2023-03-04T10:42:05;99660.80;;;3.70
68588;BMP180;55560;52.174;20.996;2023-03-04T10:44:34;99658.80;;;3.80
68588;BMP180;55560;52.174;20.996;2023-03-04T10:47:08;99654.20;;;3.80
68588;BMP180;55560;52.174;20.996;2023-03-04T10:49:53;99648.60;;;3.80
68588;BMP180;55560;52.174;20.996;2023-03-04T10:52:57;99648.00;;;3.90
68588;BMP180;55560;52.174;20.996;2023-03-04T10:55:42;99644.00;;;3.90
68588;BMP180;55560;52.174;20.996;2023-03-04T10:58:14;99644.40;;;3.90
68588;BMP180;55560;52.174;20.996;2023-03-04T11:00:51;99642.20;;;4.00
68588;BMP180;55560;52.174;20.996;2023-03-04T11:06:22;99641.00;;;3.98
68588;BMP180;55560;52.174;20.996;2023-03-04T11:08:56;99646.20;;;3.98
68588;BMP180;55560;52.174;20.996;2023-03-04T11:11:37;99640.60;;;4.00
68588;BMP180;55560;52.174;20.996;2023-03-04T11:14:19;99634.00;;;3.90
68588;BMP180;55560;52.174;20.996;2023-03-04T11:17:00;99638.00;;;3.98
68588;BMP180;55560;52.174;20.996;2023-03-04T11:19:38;99634.80;;;4.00
68588;BMP180;55560;52.174;20.996;2023-03-04T11:22:06;99637.40;;;4.00
68588;BMP180;55560;52.174;20.996;2023-03-04T11:24:36;99635.60;;;4.00
68588;BMP180;55560;52.174;20.996;2023-03-04T11:27:16;99634.60;;;4.00
68588;BMP180;55560;52.174;20.996;2023-03-04T11:29:53;99625.40;;;4.00
68588;BMP180;55560;52.174;20.996;2023-03-04T11:32:42;99635.20;;;4.00
68588;BMP180;55560;52.174;20.996;2023-03-04T11:35:30;99636.00;;;4.08
68588;BMP180;55560;52.174;20.996;2023-03-04T11:38:21;99623.80;;;4.10
68588;BMP180;55560;52.174;20.996;2023-03-04T11:41:00;99614.60;;;4.14
68588;BMP180;55560;52.174;20.996;2023-03-04T11:43:37;99616.60;;;4.10
68588;BMP180;55560;52.174;20.996;2023-03-04T11:55:45;99606.80;;;4.28
68588;BMP180;55560;52.174;20.996;2023-03-04T11:58:57;99611.80;;;4.30
68588;BMP180;55560;52.174;20.996;2023-03-04T12:07:49;99605.20;;;4.30
68588;BMP180;55560;52.174;20.996;2023-03-04T12:10:46;99610.40;;;4.30
68588;BMP180;55560;52.174;20.996;2023-03-04T12:19:17;99604.60;;;4.30
68588;BMP180;55560;52.174;20.996;2023-03-04T12:25:17;99600.80;;;4.24
68588;BMP180;55560;52.174;20.996;2023-03-04T12:36:45;99607.60;;;4.30
68588;BMP180;55560;52.174;20.996;2023-03-04T12:39:32;99620.20;;;4.30
68588;BMP180;55560;52.174;20.996;2023-03-04T12:42:23;99620.40;;;4.30
68588;BMP180;55560;52.174;20.996;2023-03-04T12:48:25;99607.00;;;4.32
68588;BMP180;55560;52.174;20.996;2023-03-04T12:59:22;99601.00;;;4.40
68588;BMP180;55560;52.174;20.996;2023-03-04T13:05:18;99606.60;;;4.48
68588;BMP180;55560;52.174;20.996;2023-03-04T13:08:06;99604.00;;;4.50
68588;BMP180;55560;52.174;20.996;2023-03-04T13:10:35;99599.80;;;4.58
68588;BMP180;55560;52.174;20.996;2023-03-04T13:13:03;99600.60;;;4.60
68588;BMP180;55560;52.174;20.996;2023-03-04T13:15:35;99595.60;;;4.70
68588;BMP180;55560;52.174;20.996;2023-03-04T13:18:29;99591.00;;;4.70
68588;BMP180;55560;52.174;20.996;2023-03-04T13:23:40;99584.40;;;4.80
68588;BMP180;55560;52.174;20.996;2023-03-04T13:26:32;99587.40;;;4.80
68588;BMP180;55560;52.174;20.996;2023-03-04T13:32:35;99592.80;;;4.84
68588;BMP180;55560;52.174;20.996;2023-03-04T13:38:37;99601.00;;;4.90
68588;BMP180;55560;52.174;20.996;2023-03-04T13:41:29;99590.80;;;4.98
68588;BMP180;55560;52.174;20.996;2023-03-04T13:44:28;99581.40;;;5.00
68588;BMP180;55560;52.174;20.996;2023-03-04T13:46:53;99592.60;;;5.00
68588;BMP180;55560;52.174;20.996;2023-03-04T13:49:22;99591.20;;;5.00
68588;BMP180;55560;52.174;20.996;2023-03-04T13:51:51;99585.60;;;5.08
68588;BMP180;55560;52.174;20.996;2023-03-04T13:54:30;99590.40;;;5.10
68588;BMP180;55560;52.174;20.996;2023-03-04T13:57:30;99597.80;;;5.10
68588;BMP180;55560;52.174;20.996;2023-03-04T13:59:58;99608.20;;;5.14
68588;BMP180;55560;52.174;20.996;2023-03-04T14:02:33;99605.20;;;5.16
68588;BMP180;55560;52.174;20.996;2023-03-04T14:05:01;99608.20;;;5.10
68588;BMP180;55560;52.174;20.996;2023-03-04T14:07:34;99599.80;;;5.10
68588;BMP180;55560;52.174;20.996;2023-03-04T14:12:54;99567.20;;;5.00
68588;BMP180;55560;52.174;20.996;2023-03-04T14:15:26;99578.20;;;5.00
68588;BMP180;55560;52.174;20.996;2023-03-04T14:18:00;99576.80;;;5.00
68588;BMP180;55560;52.174;20.996;2023-03-04T14:20:35;99579.40;;;5.00
68588;BMP180;55560;52.174;20.996;2023-03-04T14:23:30;99576.80;;;5.00
68588;BMP180;55560;52.174;20.996;2023-03-04T14:26:09;99566.60;;;5.10
68588;BMP180;55560;52.174;20.996;2023-03-04T14:28:50;99574.80;;;5.20
68588;BMP180;55560;52.174;20.996;2023-03-04T14:31:21;99575.80;;;5.30
68588;BMP180;55560;52.174;20.996;2023-03-04T14:33:53;99573.00;;;5.50
68588;BMP180;55560;52.174;20.996;2023-03-04T14:36:30;99586.20;;;5.78
68588;BMP180;55560;52.174;20.996;2023-03-04T14:39:02;99582.80;;;5.90
68588;BMP180;55560;52.174;20.996;2023-03-04T14:41:36;99587.80;;;6.00
68588;BMP180;55560;52.174;20.996;2023-03-04T14:44:42;99576.60;;;6.08
68588;BMP180;55560;52.174;20.996;2023-03-04T14:47:42;99586.60;;;6.04
68588;BMP180;55560;52.174;20.996;2023-03-04T14:50:18;99591.60;;;6.00
68588;BMP180;55560;52.174;20.996;2023-03-04T14:52:49;99601.40;;;6.06
68588;BMP180;55560;52.174;20.996;2023-03-04T14:55:25;99602.60;;;6.00
68588;BMP180;55560;52.174;20.996;2023-03-04T14:58:17;99602.80;;;6.00
68588;BMP180;55560;52.174;20.996;2023-03-04T15:00:47;99599.60;;;5.90
68588;BMP180;55560;52.174;20.996;2023-03-04T15:03:26;99601.40;;;5.90
68588;BMP180;55560;52.174;20.996;2023-03-04T15:06:19;99599.40;;;5.90
68588;BMP180;55560;52.174;20.996;2023-03-04T15:09:17;99611.00;;;5.90
68588;BMP180;55560;52.174;20.996;2023-03-04T15:11:46;99604.60;;;5.80
68588;BMP180;55560;52.174;20.996;2023-03-04T15:14:48;99604.20;;;5.80
68588;BMP180;55560;52.174;20.996;2023-03-04T15:17:29;99615.00;;;5.76
68588;BMP180;55560;52.174;20.996;2023-03-04T15:20:24;99615.00;;;5.70
68588;BMP180;55560;52.174;20.996;2023-03-04T15:25:21;99624.60;;;5.68
68588;BMP180;55560;52.174;20.996;2023-03-04T15:27:50;99628.20;;;5.66
68588;BMP180;55560;52.174;20.996;2023-03-04T15:30:24;99627.80;;;5.60
68588;BMP180;55560;52.174;20.996;2023-03-04T15:32:56;99642.60;;;5.50
68588;BMP180;55560;52.174;20.996;2023-03-04T15:35:27;99648.80;;;5.48
68588;BMP180;55560;52.174;20.996;2023-03-04T15:37:55;99651.80;;;5.40
68588;BMP180;55560;52.174;20.996;2023-03-04T15:40:37;99654.60;;;5.30
68588;BMP180;55560;52.174;20.996;2023-03-04T15:43:06;99658.60;;;5.22
68588;BMP180;55560;52.174;20.996;2023-03-04T15:45:37;99680.00;;;5.20
68588;BMP180;55560;52.174;20.996;2023-03-04T15:48:10;99668.80;;;5.20
68588;BMP180;55560;52.174;20.996;2023-03-04T15:50:59;99687.60;;;5.12
68588;BMP180;55560;52.174;20.996;2023-03-04T15:53:37;99694.40;;;5.10
68588;BMP180;55560;52.174;20.996;2023-03-04T15:56:18;99705.40;;;5.00
68588;BMP180;55560;52.174;20.996;2023-03-04T15:58:53;99713.40;;;5.00
68588;BMP180;55560;52.174;20.996;2023-03-04T16:01:22;99728.80;;;4.90
68588;BMP180;55560;52.174;20.996;2023-03-04T16:03:51;99733.80;;;4.88
68588;BMP180;55560;52.174;20.996;2023-03-04T16:06:20;99739.00;;;4.80